sensor_id;sensor_type;location;lat;lon;timestamp;P1;durP1;ratioP1;P2;durP2;ratioP2
10588;SDS011;5342;55.676;13.346;2022-12-07T00:01:08;12.77;;;9.30;;
10588;SDS011;5342;55.676;13.346;2022-12-07T00:03:35;12.97;;;9.67;;
10588;SDS011;5342;55.676;13.346;2022-12-07T00:06:02;14.87;;;10.27;;
10588;SDS011;5342;55.676;13.346;2022-12-07T00:08:29;14.70;;;9.80;;
10588;SDS011;5342;55.676;13.346;2022-12-07T00:11:00;11.60;;;9.00;;
10588;SDS011;5342;55.676;13.346;2022-12-07T00:13:27;13.40;;;9.33;;
10588;SDS011;5342;55.676;13.346;2022-12-07T00:15:54;12.40;;;9.97;;
10588;SDS011;5342;55.676;13.346;2022-12-07T00:18:20;13.77;;;9.10;;
10588;SDS011;5342;55.676;13.346;2022-12-07T00:20:47;13.83;;;9.17;;
10588;SDS011;5342;55.676;13.346;2022-12-07T00:23:13;12.60;;;9.53;;
10588;SDS011;5342;55.676;13.346;2022-12-07T00:25:40;13.83;;;8.90;;
10588;SDS011;5342;55.676;13.346;2022-12-07T00:28:06;13.37;;;9.57;;
10588;SDS011;5342;55.676;13.346;2022-12-07T00:30:34;14.03;;;9.27;;
10588;SDS011;5342;55.676;13.346;2022-12-07T00:33:01;12.93;;;9.70;;
10588;SDS011;5342;55.676;13.346;2022-12-07T00:35:27;13.27;;;9.40;;
10588;SDS011;5342;55.676;13.346;2022-12-07T00:37:54;13.17;;;9.03;;
10588;SDS011;5342;55.676;13.346;2022-12-07T00:40:20;11.13;;;8.53;;
10588;SDS011;5342;55.676;13.346;2022-12-07T00:42:47;13.80;;;9.27;;
10588;SDS011;5342;55.676;13.346;2022-12-07T00:45:13;14.30;;;8.77;;
10588;SDS011;5342;55.676;13.346;2022-12-07T00:47:40;11.40;;;8.67;;
10588;SDS011;5342;55.676;13.346;2022-12-07T00:50:07;11.80;;;8.47;;
10588;SDS011;5342;55.676;13.346;2022-12-07T00:52:33;15.00;;;9.00;;
10588;SDS011;5342;55.676;13.346;2022-12-07T00:55:00;12.17;;;8.23;;
10588;SDS011;5342;55.676;13.346;2022-12-07T00:57:26;12.23;;;9.43;;
10588;SDS011;5342;55.676;13.346;2022-12-07T00:59:53;12.23;;;9.07;;
10588;SDS011;5342;55.676;13.346;2022-12-07T01:02:23;11.60;;;8.40;;
10588;SDS011;5342;55.676;13.346;2022-12-07T01:04:49;15.33;;;10.03;;
10588;SDS011;5342;55.676;13.346;2022-12-07T01:07:16;11.77;;;8.20;;
10588;SDS011;5342;55.676;13.346;2022-12-07T01:09:42;13.00;;;8.43;;
10588;SDS011;5342;55.676;13.346;2022-12-07T01:12:09;12.20;;;8.73;;
10588;SDS011;5342;55.676;13.346;2022-12-07T01:14:35;12.93;;;8.43;;
10588;SDS011;5342;55.676;13.346;2022-12-07T01:17:02;12.23;;;8.63;;
10588;SDS011;5342;55.676;13.346;2022-12-07T01:19:29;14.67;;;9.20;;
10588;SDS011;5342;55.676;13.346;2022-12-07T01:21:55;12.20;;;9.07;;
10588;SDS011;5342;55.676;13.346;2022-12-07T01:24:22;13.10;;;8.73;;
10588;SDS011;5342;55.676;13.346;2022-12-07T01:26:48;12.13;;;8.47;;
10588;SDS011;5342;55.676;13.346;2022-12-07T01:29:15;13.57;;;8.87;;
10588;SDS011;5342;55.676;13.346;2022-12-07T01:31:42;12.47;;;8.43;;
10588;SDS011;5342;55.676;13.346;2022-12-07T01:34:08;9.63;;;7.57;;
10588;SDS011;5342;55.676;13.346;2022-12-07T01:36:35;10.43;;;7.30;;
10588;SDS011;5342;55.676;13.346;2022-12-07T01:39:06;11.27;;;7.97;;
10588;SDS011;5342;55.676;13.346;2022-12-07T01:41:33;11.13;;;7.07;;
10588;SDS011;5342;55.676;13.346;2022-12-07T01:47:03;10.00;;;6.93;;
10588;SDS011;5342;55.676;13.346;2022-12-07T01:49:45;9.10;;;6.90;;
10588;SDS011;5342;55.676;13.346;2022-12-07T01:52:14;9.37;;;6.77;;
10588;SDS011;5342;55.676;13.346;2022-12-07T01:54:42;9.83;;;7.33;;
10588;SDS011;5342;55.676;13.346;2022-12-07T01:57:10;7.70;;;6.53;;
10588;SDS011;5342;55.676;13.346;2022-12-07T01:59:37;9.43;;;6.43;;
10588;SDS011;5342;55.676;13.346;2022-12-07T02:02:05;12.70;;;8.10;;
10588;SDS011;5342;55.676;13.346;2022-12-07T02:04:34;11.90;;;7.97;;
10588;SDS011;5342;55.676;13.346;2022-12-07T02:07:01;9.20;;;6.67;;
10588;SDS011;5342;55.676;13.346;2022-12-07T02:09:28;9.63;;;6.43;;
10588;SDS011;5342;55.676;13.346;2022-12-07T02:11:55;12.63;;;7.43;;
10588;SDS011;5342;55.676;13.346;2022-12-07T02:14:22;12.00;;;8.07;;
10588;SDS011;5342;55.676;13.346;2022-12-07T02:21:57;11.97;;;8.77;;
10588;SDS011;5342;55.676;13.346;2022-12-07T02:30:00;12.73;;;8.47;;
10588;SDS011;5342;55.676;13.346;2022-12-07T02:32:32;11.30;;;8.07;;
10588;SDS011;5342;55.676;13.346;2022-12-07T02:39:59;13.10;;;9.90;;
10588;SDS011;5342;55.676;13.346;2022-12-07T02:42:32;15.60;;;11.10;;
10588;SDS011;5342;55.676;13.346;2022-12-07T02:45:01;13.40;;;9.73;;
10588;SDS011;5342;55.676;13.346;2022-12-07T02:47:29;12.00;;;10.43;;
10588;SDS011;5342;55.676;13.346;2022-12-07T02:49:57;14.57;;;10.37;;
10588;SDS011;5342;55.676;13.346;2022-12-07T02:52:23;14.93;;;11.30;;
10588;SDS011;5342;55.676;13.346;2022-12-07T02:54:50;16.03;;;11.17;;
10588;SDS011;5342;55.676;13.346;2022-12-07T03:12:35;14.90;;;11.33;;
10588;SDS011;5342;55.676;13.346;2022-12-07T03:15:09;16.97;;;11.30;;
10588;SDS011;5342;55.676;13.346;2022-12-07T03:17:37;14.10;;;11.40;;
10588;SDS011;5342;55.676;13.346;2022-12-07T03:20:05;13.00;;;10.63;;
10588;SDS011;5342;55.676;13.346;2022-12-07T03:22:34;13.53;;;11.30;;
10588;SDS011;5342;55.676;13.346;2022-12-07T03:25:04;13.03;;;10.50;;
10588;SDS011;5342;55.676;13.346;2022-12-07T03:27:32;16.63;;;10.53;;
10588;SDS011;5342;55.676;13.346;2022-12-07T03:30:10;16.37;;;10.97;;
10588;SDS011;5342;55.676;13.346;2022-12-07T03:32:43;13.30;;;9.77;;
10588;SDS011;5342;55.676;13.346;2022-12-07T03:35:26;13.40;;;9.90;;
10588;SDS011;5342;55.676;13.346;2022-12-07T03:37:58;15.90;;;10.63;;
10588;SDS011;5342;55.676;13.346;2022-12-07T03:40:28;13.10;;;9.50;;
10588;SDS011;5342;55.676;13.346;2022-12-07T03:42:56;14.63;;;10.10;;
10588;SDS011;5342;55.676;13.346;2022-12-07T03:45:27;14.73;;;9.83;;
10588;SDS011;5342;55.676;13.346;2022-12-07T03:48:00;12.83;;;9.87;;
10588;SDS011;5342;55.676;13.346;2022-12-07T03:50:31;13.47;;;9.53;;
10588;SDS011;5342;55.676;13.346;2022-12-07T03:53:05;13.57;;;9.63;;
10588;SDS011;5342;55.676;13.346;2022-12-07T03:55:35;14.57;;;9.63;;
10588;SDS011;5342;55.676;13.346;2022-12-07T03:58:03;11.87;;;9.70;;
10588;SDS011;5342;55.676;13.346;2022-12-07T04:00:31;15.73;;;10.47;;
10588;SDS011;5342;55.676;13.346;2022-12-07T04:02:58;15.83;;;9.73;;
10588;SDS011;5342;55.676;13.346;2022-12-07T04:05:25;11.03;;;9.13;;
10588;SDS011;5342;55.676;13.346;2022-12-07T04:07:52;15.87;;;10.47;;
10588;SDS011;5342;55.676;13.346;2022-12-07T04:10:18;16.70;;;10.87;;
10588;SDS011;5342;55.676;13.346;2022-12-07T04:12:45;14.47;;;10.53;;
10588;SDS011;5342;55.676;13.346;2022-12-07T04:15:11;13.67;;;10.47;;
10588;SDS011;5342;55.676;13.346;2022-12-07T04:17:38;16.43;;;11.70;;
10588;SDS011;5342;55.676;13.346;2022-12-07T04:20:05;18.07;;;11.40;;
10588;SDS011;5342;55.676;13.346;2022-12-07T04:22:32;16.97;;;11.47;;
10588;SDS011;5342;55.676;13.346;2022-12-07T04:24:58;17.80;;;10.67;;
10588;SDS011;5342;55.676;13.346;2022-12-07T04:27:25;17.10;;;11.47;;
10588;SDS011;5342;55.676;13.346;2022-12-07T04:29:51;20.93;;;11.27;;
10588;SDS011;5342;55.676;13.346;2022-12-07T04:32:18;20.10;;;10.80;;
10588;SDS011;5342;55.676;13.346;2022-12-07T04:34:44;16.73;;;10.57;;
10588;SDS011;5342;55.676;13.346;2022-12-07T04:37:11;16.97;;;11.17;;
10588;SDS011;5342;55.676;13.346;2022-12-07T04:39:37;17.57;;;11.63;;
10588;SDS011;5342;55.676;13.346;2022-12-07T04:42:04;15.03;;;10.70;;
10588;SDS011;5342;55.676;13.346;2022-12-07T04:44:31;15.80;;;10.93;;
10588;SDS011;5342;55.676;13.346;2022-12-07T04:46:57;15.23;;;10.97;;
10588;SDS011;5342;55.676;13.346;2022-12-07T04:49:24;15.13;;;10.20;;
10588;SDS011;5342;55.676;13.346;2022-12-07T04:51:51;17.10;;;10.57;;
10588;SDS011;5342;55.676;13.346;2022-12-07T04:54:17;18.63;;;11.53;;
10588;SDS011;5342;55.676;13.346;2022-12-07T04:56:44;17.33;;;11.50;;
10588;SDS011;5342;55.676;13.346;2022-12-07T04:59:11;17.83;;;11.90;;
10588;SDS011;5342;55.676;13.346;2022-12-07T05:01:38;18.23;;;12.07;;
10588;SDS011;5342;55.676;13.346;2022-12-07T05:04:05;16.53;;;10.90;;
10588;SDS011;5342;55.676;13.346;2022-12-07T05:06:32;19.10;;;12.07;;
10588;SDS011;5342;55.676;13.346;2022-12-07T05:08:59;17.87;;;10.97;;
10588;SDS011;5342;55.676;13.346;2022-12-07T05:11:25;20.47;;;11.73;;
10588;SDS011;5342;55.676;13.346;2022-12-07T05:14:14;16.90;;;11.07;;
10588;SDS011;5342;55.676;13.346;2022-12-07T05:16:42;17.10;;;11.50;;
10588;SDS011;5342;55.676;13.346;2022-12-07T05:19:09;16.40;;;10.23;;
10588;SDS011;5342;55.676;13.346;2022-12-07T05:21:36;15.37;;;10.90;;
10588;SDS011;5342;55.676;13.346;2022-12-07T05:24:03;15.88;;;10.02;;
10588;SDS011;5342;55.676;13.346;2022-12-07T05:26:30;15.80;;;10.03;;
10588;SDS011;5342;55.676;13.346;2022-12-07T05:28:57;16.70;;;10.13;;
10588;SDS011;5342;55.676;13.346;2022-12-07T05:31:24;13.83;;;9.40;;
10588;SDS011;5342;55.676;13.346;2022-12-07T05:33:50;12.50;;;9.20;;
10588;SDS011;5342;55.676;13.346;2022-12-07T05:36:17;14.87;;;9.07;;
10588;SDS011;5342;55.676;13.346;2022-12-07T05:38:44;18.50;;;10.93;;
10588;SDS011;5342;55.676;13.346;2022-12-07T05:41:12;17.13;;;10.10;;
10588;SDS011;5342;55.676;13.346;2022-12-07T05:43:59;17.92;;;10.25;;
10588;SDS011;5342;55.676;13.346;2022-12-07T05:46:26;13.73;;;9.30;;
10588;SDS011;5342;55.676;13.346;2022-12-07T05:48:52;14.33;;;9.77;;
10588;SDS011;5342;55.676;13.346;2022-12-07T05:51:19;15.60;;;9.73;;
10588;SDS011;5342;55.676;13.346;2022-12-07T05:53:46;17.57;;;9.87;;
10588;SDS011;5342;55.676;13.346;2022-12-07T05:56:12;17.87;;;9.37;;
10588;SDS011;5342;55.676;13.346;2022-12-07T05:58:39;15.60;;;9.70;;
10588;SDS011;5342;55.676;13.346;2022-12-07T06:01:24;16.37;;;8.30;;
10588;SDS011;5342;55.676;13.346;2022-12-07T06:03:51;14.37;;;9.03;;
10588;SDS011;5342;55.676;13.346;2022-12-07T06:06:17;10.87;;;9.07;;
10588;SDS011;5342;55.676;13.346;2022-12-07T06:08:44;14.77;;;9.43;;
10588;SDS011;5342;55.676;13.346;2022-12-07T06:11:10;15.23;;;8.97;;
10588;SDS011;5342;55.676;13.346;2022-12-07T06:13:55;16.90;;;8.97;;
10588;SDS011;5342;55.676;13.346;2022-12-07T06:16:22;13.95;;;8.63;;
10588;SDS011;5342;55.676;13.346;2022-12-07T06:18:49;13.10;;;8.23;;
10588;SDS011;5342;55.676;13.346;2022-12-07T06:21:15;16.40;;;8.30;;
10588;SDS011;5342;55.676;13.346;2022-12-07T06:23:42;14.17;;;8.30;;
10588;SDS011;5342;55.676;13.346;2022-12-07T06:26:08;11.73;;;8.67;;
10588;SDS011;5342;55.676;13.346;2022-12-07T06:28:35;13.23;;;8.17;;
10588;SDS011;5342;55.676;13.346;2022-12-07T06:31:01;13.82;;;8.15;;
10588;SDS011;5342;55.676;13.346;2022-12-07T06:33:28;13.13;;;8.18;;
10588;SDS011;5342;55.676;13.346;2022-12-07T06:35:55;15.47;;;8.50;;
10588;SDS011;5342;55.676;13.346;2022-12-07T06:38:22;14.00;;;8.47;;
10588;SDS011;5342;55.676;13.346;2022-12-07T06:40:48;12.40;;;8.63;;
10588;SDS011;5342;55.676;13.346;2022-12-07T06:43:15;15.88;;;8.98;;
10588;SDS011;5342;55.676;13.346;2022-12-07T06:45:41;12.30;;;8.50;;
10588;SDS011;5342;55.676;13.346;2022-12-07T06:48:08;13.33;;;8.73;;
10588;SDS011;5342;55.676;13.346;2022-12-07T06:50:34;17.17;;;9.27;;
10588;SDS011;5342;55.676;13.346;2022-12-07T06:53:01;15.57;;;10.20;;
10588;SDS011;5342;55.676;13.346;2022-12-07T06:55:27;16.57;;;9.53;;
10588;SDS011;5342;55.676;13.346;2022-12-07T06:57:54;14.67;;;8.57;;
10588;SDS011;5342;55.676;13.346;2022-12-07T07:00:20;10.98;;;7.78;;
10588;SDS011;5342;55.676;13.346;2022-12-07T07:02:47;15.23;;;8.17;;
10588;SDS011;5342;55.676;13.346;2022-12-07T07:05:14;13.20;;;8.27;;
10588;SDS011;5342;55.676;13.346;2022-12-07T07:07:41;10.80;;;7.97;;
10588;SDS011;5342;55.676;13.346;2022-12-07T07:10:08;11.48;;;7.22;;
10588;SDS011;5342;55.676;13.346;2022-12-07T07:12:35;11.50;;;7.60;;
10588;SDS011;5342;55.676;13.346;2022-12-07T07:15:01;11.60;;;7.00;;
10588;SDS011;5342;55.676;13.346;2022-12-07T07:17:28;13.17;;;7.43;;
10588;SDS011;5342;55.676;13.346;2022-12-07T07:19:54;10.53;;;6.00;;
10588;SDS011;5342;55.676;13.346;2022-12-07T07:22:21;8.98;;;5.13;;
10588;SDS011;5342;55.676;13.346;2022-12-07T07:24:48;9.70;;;6.23;;
10588;SDS011;5342;55.676;13.346;2022-12-07T07:27:14;10.77;;;6.27;;
10588;SDS011;5342;55.676;13.346;2022-12-07T07:29:41;13.63;;;5.70;;
10588;SDS011;5342;55.676;13.346;2022-12-07T07:32:07;8.57;;;5.63;;
10588;SDS011;5342;55.676;13.346;2022-12-07T07:34:34;11.20;;;6.22;;
10588;SDS011;5342;55.676;13.346;2022-12-07T07:37:00;12.30;;;6.10;;
10588;SDS011;5342;55.676;13.346;2022-12-07T07:39:27;9.00;;;5.47;;
10588;SDS011;5342;55.676;13.346;2022-12-07T07:41:53;8.90;;;6.10;;
10588;SDS011;5342;55.676;13.346;2022-12-07T07:44:20;10.97;;;5.70;;
10588;SDS011;5342;55.676;13.346;2022-12-07T07:46:47;7.87;;;5.57;;
10588;SDS011;5342;55.676;13.346;2022-12-07T07:49:13;9.88;;;6.43;;
10588;SDS011;5342;55.676;13.346;2022-12-07T07:51:40;8.10;;;5.82;;
10588;SDS011;5342;55.676;13.346;2022-12-07T07:54:06;13.67;;;6.13;;
10588;SDS011;5342;55.676;13.346;2022-12-07T07:56:33;8.67;;;5.43;;
10588;SDS011;5342;55.676;13.346;2022-12-07T07:58:59;8.27;;;5.53;;
10588;SDS011;5342;55.676;13.346;2022-12-07T08:01:26;9.03;;;6.07;;
10588;SDS011;5342;55.676;13.346;2022-12-07T08:03:52;9.77;;;5.17;;
10588;SDS011;5342;55.676;13.346;2022-12-07T08:06:19;8.07;;;5.73;;
10588;SDS011;5342;55.676;13.346;2022-12-07T08:08:45;8.20;;;5.03;;
10588;SDS011;5342;55.676;13.346;2022-12-07T08:11:12;9.73;;;5.80;;
10588;SDS011;5342;55.676;13.346;2022-12-07T08:13:39;6.80;;;5.33;;
10588;SDS011;5342;55.676;13.346;2022-12-07T08:16:06;8.90;;;5.93;;
10588;SDS011;5342;55.676;13.346;2022-12-07T08:18:35;8.10;;;5.60;;
10588;SDS011;5342;55.676;13.346;2022-12-07T08:21:02;7.70;;;5.27;;
10588;SDS011;5342;55.676;13.346;2022-12-07T08:23:29;6.83;;;4.50;;
10588;SDS011;5342;55.676;13.346;2022-12-07T08:25:59;6.47;;;4.90;;
10588;SDS011;5342;55.676;13.346;2022-12-07T08:28:27;7.10;;;4.87;;
10588;SDS011;5342;55.676;13.346;2022-12-07T08:31:04;6.73;;;4.57;;
10588;SDS011;5342;55.676;13.346;2022-12-07T08:33:31;6.27;;;4.50;;
10588;SDS011;5342;55.676;13.346;2022-12-07T08:36:02;8.67;;;4.67;;
10588;SDS011;5342;55.676;13.346;2022-12-07T08:38:29;6.37;;;3.93;;
10588;SDS011;5342;55.676;13.346;2022-12-07T08:40:56;5.57;;;3.87;;
10588;SDS011;5342;55.676;13.346;2022-12-07T08:43:23;4.23;;;3.83;;
10588;SDS011;5342;55.676;13.346;2022-12-07T08:45:52;8.03;;;3.80;;
10588;SDS011;5342;55.676;13.346;2022-12-07T08:48:20;5.37;;;3.67;;
10588;SDS011;5342;55.676;13.346;2022-12-07T08:50:50;8.13;;;4.33;;
10588;SDS011;5342;55.676;13.346;2022-12-07T08:53:17;5.53;;;3.80;;
10588;SDS011;5342;55.676;13.346;2022-12-07T08:55:44;5.80;;;3.63;;
10588;SDS011;5342;55.676;13.346;2022-12-07T08:58:11;5.30;;;3.70;;
10588;SDS011;5342;55.676;13.346;2022-12-07T09:00:37;7.50;;;4.53;;
10588;SDS011;5342;55.676;13.346;2022-12-07T09:03:04;18.10;;;14.93;;
10588;SDS011;5342;55.676;13.346;2022-12-07T09:05:31;6.03;;;3.90;;
10588;SDS011;5342;55.676;13.346;2022-12-07T09:08:00;8.10;;;4.00;;
10588;SDS011;5342;55.676;13.346;2022-12-07T09:10:27;7.43;;;4.00;;
10588;SDS011;5342;55.676;13.346;2022-12-07T09:12:54;6.43;;;4.07;;
10588;SDS011;5342;55.676;13.346;2022-12-07T09:15:21;9.73;;;6.43;;
10588;SDS011;5342;55.676;13.346;2022-12-07T09:17:47;7.10;;;5.07;;
10588;SDS011;5342;55.676;13.346;2022-12-07T09:20:14;6.30;;;4.60;;
10588;SDS011;5342;55.676;13.346;2022-12-07T09:22:42;5.73;;;4.83;;
10588;SDS011;5342;55.676;13.346;2022-12-07T09:25:08;5.30;;;4.23;;
10588;SDS011;5342;55.676;13.346;2022-12-07T09:27:35;5.93;;;4.27;;
10588;SDS011;5342;55.676;13.346;2022-12-07T09:30:02;6.33;;;3.80;;
10588;SDS011;5342;55.676;13.346;2022-12-07T09:32:28;4.33;;;3.87;;
10588;SDS011;5342;55.676;13.346;2022-12-07T09:34:55;6.57;;;4.07;;
10588;SDS011;5342;55.676;13.346;2022-12-07T09:37:21;6.57;;;3.97;;
10588;SDS011;5342;55.676;13.346;2022-12-07T09:39:48;4.50;;;3.57;;
10588;SDS011;5342;55.676;13.346;2022-12-07T09:42:26;4.77;;;3.60;;
10588;SDS011;5342;55.676;13.346;2022-12-07T09:44:53;5.43;;;3.87;;
10588;SDS011;5342;55.676;13.346;2022-12-07T09:47:20;4.67;;;3.30;;
10588;SDS011;5342;55.676;13.346;2022-12-07T09:49:46;6.07;;;3.83;;
10588;SDS011;5342;55.676;13.346;2022-12-07T09:52:17;5.10;;;4.60;;
10588;SDS011;5342;55.676;13.346;2022-12-07T09:54:46;7.70;;;4.90;;
10588;SDS011;5342;55.676;13.346;2022-12-07T09:57:13;6.30;;;5.63;;
10588;SDS011;5342;55.676;13.346;2022-12-07T09:59:40;6.33;;;4.30;;
10588;SDS011;5342;55.676;13.346;2022-12-07T10:02:19;7.50;;;4.13;;
10588;SDS011;5342;55.676;13.346;2022-12-07T10:04:48;14.67;;;11.10;;
10588;SDS011;5342;55.676;13.346;2022-12-07T10:07:14;5.20;;;3.97;;
10588;SDS011;5342;55.676;13.346;2022-12-07T10:09:41;5.20;;;4.43;;
10588;SDS011;5342;55.676;13.346;2022-12-07T10:12:10;8.17;;;5.17;;
10588;SDS011;5342;55.676;13.346;2022-12-07T10:14:38;6.77;;;4.47;;
10588;SDS011;5342;55.676;13.346;2022-12-07T10:17:26;10.80;;;7.23;;
10588;SDS011;5342;55.676;13.346;2022-12-07T10:22:53;13.10;;;7.30;;
10588;SDS011;5342;55.676;13.346;2022-12-07T10:25:20;8.77;;;5.10;;
10588;SDS011;5342;55.676;13.346;2022-12-07T10:27:57;5.17;;;4.00;;
10588;SDS011;5342;55.676;13.346;2022-12-07T10:30:24;6.53;;;4.00;;
10588;SDS011;5342;55.676;13.346;2022-12-07T10:32:50;8.47;;;4.93;;
10588;SDS011;5342;55.676;13.346;2022-12-07T10:35:29;5.90;;;4.37;;
10588;SDS011;5342;55.676;13.346;2022-12-07T10:37:58;6.80;;;4.63;;
10588;SDS011;5342;55.676;13.346;2022-12-07T10:48:29;7.10;;;4.47;;
10588;SDS011;5342;55.676;13.346;2022-12-07T10:51:20;4.53;;;4.00;;
10588;SDS011;5342;55.676;13.346;2022-12-07T10:53:55;7.83;;;4.23;;
10588;SDS011;5342;55.676;13.346;2022-12-07T11:04:18;8.57;;;4.37;;
10588;SDS011;5342;55.676;13.346;2022-12-07T11:14:56;7.47;;;4.90;;
10588;SDS011;5342;55.676;13.346;2022-12-07T11:20:22;7.60;;;5.20;;
10588;SDS011;5342;55.676;13.346;2022-12-07T11:22:58;7.93;;;4.90;;
10588;SDS011;5342;55.676;13.346;2022-12-07T11:36:16;6.63;;;4.67;;
10588;SDS011;5342;55.676;13.346;2022-12-07T11:38:47;6.63;;;4.37;;
10588;SDS011;5342;55.676;13.346;2022-12-07T11:41:17;6.97;;;4.13;;
10588;SDS011;5342;55.676;13.346;2022-12-07T11:43:50;7.13;;;4.53;;
10588;SDS011;5342;55.676;13.346;2022-12-07T11:46:18;6.10;;;4.53;;
10588;SDS011;5342;55.676;13.346;2022-12-07T11:48:49;6.27;;;4.40;;
10588;SDS011;5342;55.676;13.346;2022-12-07T11:51:18;5.53;;;4.07;;
10588;SDS011;5342;55.676;13.346;2022-12-07T11:53:48;5.87;;;4.60;;
10588;SDS011;5342;55.676;13.346;2022-12-07T11:56:16;6.40;;;4.47;;
10588;SDS011;5342;55.676;13.346;2022-12-07T12:03:50;9.03;;;6.00;;
10588;SDS011;5342;55.676;13.346;2022-12-07T12:06:17;5.83;;;4.00;;
10588;SDS011;5342;55.676;13.346;2022-12-07T12:19:27;8.00;;;4.50;;
10588;SDS011;5342;55.676;13.346;2022-12-07T12:21:57;8.30;;;6.07;;
10588;SDS011;5342;55.676;13.346;2022-12-07T12:24:27;6.63;;;4.43;;
10588;SDS011;5342;55.676;13.346;2022-12-07T12:27:05;8.90;;;4.20;;
10588;SDS011;5342;55.676;13.346;2022-12-07T12:29:34;7.73;;;4.47;;
10588;SDS011;5342;55.676;13.346;2022-12-07T12:32:12;6.53;;;3.80;;
10588;SDS011;5342;55.676;13.346;2022-12-07T12:42:46;8.30;;;5.53;;
10588;SDS011;5342;55.676;13.346;2022-12-07T12:45:26;8.03;;;4.90;;
10588;SDS011;5342;55.676;13.346;2022-12-07T12:50:20;7.37;;;5.17;;
10588;SDS011;5342;55.676;13.346;2022-12-07T12:53:01;8.27;;;5.00;;
10588;SDS011;5342;55.676;13.346;2022-12-07T12:55:45;8.03;;;5.27;;
10588;SDS011;5342;55.676;13.346;2022-12-07T13:00:44;8.93;;;5.07;;
10588;SDS011;5342;55.676;13.346;2022-12-07T13:03:26;8.37;;;5.63;;
10588;SDS011;5342;55.676;13.346;2022-12-07T13:08:40;9.90;;;6.00;;
10588;SDS011;5342;55.676;13.346;2022-12-07T13:16:51;10.17;;;6.87;;
10588;SDS011;5342;55.676;13.346;2022-12-07T13:22:02;11.37;;;6.67;;
10588;SDS011;5342;55.676;13.346;2022-12-07T13:24:29;10.83;;;5.00;;
10588;SDS011;5342;55.676;13.346;2022-12-07T13:26:57;8.27;;;5.37;;
10588;SDS011;5342;55.676;13.346;2022-12-07T13:29:24;10.57;;;6.37;;
10588;SDS011;5342;55.676;13.346;2022-12-07T13:31:54;11.07;;;5.87;;
10588;SDS011;5342;55.676;13.346;2022-12-07T13:34:31;7.60;;;5.27;;
10588;SDS011;5342;55.676;13.346;2022-12-07T13:36:59;8.90;;;5.90;;
10588;SDS011;5342;55.676;13.346;2022-12-07T13:39:27;8.17;;;5.10;;
10588;SDS011;5342;55.676;13.346;2022-12-07T13:42:06;7.03;;;4.73;;
10588;SDS011;5342;55.676;13.346;2022-12-07T13:44:33;9.27;;;6.07;;
10588;SDS011;5342;55.676;13.346;2022-12-07T13:47:07;8.87;;;5.60;;
10588;SDS011;5342;55.676;13.346;2022-12-07T13:49:45;13.20;;;6.27;;
10588;SDS011;5342;55.676;13.346;2022-12-07T13:57:35;6.40;;;4.83;;
10588;SDS011;5342;55.676;13.346;2022-12-07T14:00:05;5.93;;;4.67;;
10588;SDS011;5342;55.676;13.346;2022-12-07T14:02:53;6.63;;;4.60;;
10588;SDS011;5342;55.676;13.346;2022-12-07T14:05:24;5.80;;;4.40;;
10588;SDS011;5342;55.676;13.346;2022-12-07T14:07:55;5.50;;;4.00;;
10588;SDS011;5342;55.676;13.346;2022-12-07T14:10:23;6.00;;;4.07;;
10588;SDS011;5342;55.676;13.346;2022-12-07T14:12:50;5.73;;;4.90;;
10588;SDS011;5342;55.676;13.346;2022-12-07T14:15:21;5.77;;;4.63;;
10588;SDS011;5342;55.676;13.346;2022-12-07T14:17:52;6.47;;;5.00;;
10588;SDS011;5342;55.676;13.346;2022-12-07T14:22:55;6.67;;;4.67;;
10588;SDS011;5342;55.676;13.346;2022-12-07T14:25:23;5.50;;;4.60;;
10588;SDS011;5342;55.676;13.346;2022-12-07T14:27:53;7.33;;;4.47;;
10588;SDS011;5342;55.676;13.346;2022-12-07T14:30:22;5.70;;;4.90;;
10588;SDS011;5342;55.676;13.346;2022-12-07T14:32:53;9.03;;;5.67;;
10588;SDS011;5342;55.676;13.346;2022-12-07T14:35:20;5.20;;;4.50;;
10588;SDS011;5342;55.676;13.346;2022-12-07T14:37:47;9.53;;;5.73;;
10588;SDS011;5342;55.676;13.346;2022-12-07T14:40:15;8.70;;;5.47;;
10588;SDS011;5342;55.676;13.346;2022-12-07T14:42:42;8.73;;;6.30;;
10588;SDS011;5342;55.676;13.346;2022-12-07T14:45:19;11.73;;;7.93;;
10588;SDS011;5342;55.676;13.346;2022-12-07T14:47:47;5.63;;;3.87;;
10588;SDS011;5342;55.676;13.346;2022-12-07T14:50:14;5.40;;;4.00;;
10588;SDS011;5342;55.676;13.346;2022-12-07T14:52:42;5.53;;;3.83;;
10588;SDS011;5342;55.676;13.346;2022-12-07T14:55:13;5.80;;;4.27;;
10588;SDS011;5342;55.676;13.346;2022-12-07T14:57:40;6.20;;;3.70;;
10588;SDS011;5342;55.676;13.346;2022-12-07T15:00:08;3.87;;;3.30;;
10588;SDS011;5342;55.676;13.346;2022-12-07T15:02:35;3.93;;;3.50;;
10588;SDS011;5342;55.676;13.346;2022-12-07T15:05:01;7.77;;;4.53;;
10588;SDS011;5342;55.676;13.346;2022-12-07T15:07:28;5.43;;;3.90;;
10588;SDS011;5342;55.676;13.346;2022-12-07T15:09:54;6.00;;;3.50;;
10588;SDS011;5342;55.676;13.346;2022-12-07T15:12:21;5.87;;;3.70;;
10588;SDS011;5342;55.676;13.346;2022-12-07T15:14:49;5.07;;;3.73;;
10588;SDS011;5342;55.676;13.346;2022-12-07T15:17:15;4.07;;;3.57;;
10588;SDS011;5342;55.676;13.346;2022-12-07T15:19:42;5.23;;;3.57;;
10588;SDS011;5342;55.676;13.346;2022-12-07T15:22:08;5.97;;;3.60;;
10588;SDS011;5342;55.676;13.346;2022-12-07T15:24:36;4.30;;;3.60;;
10588;SDS011;5342;55.676;13.346;2022-12-07T15:27:03;6.33;;;4.07;;
10588;SDS011;5342;55.676;13.346;2022-12-07T15:29:30;5.13;;;3.57;;
10588;SDS011;5342;55.676;13.346;2022-12-07T15:31:57;5.13;;;3.50;;
10588;SDS011;5342;55.676;13.346;2022-12-07T15:34:24;3.83;;;3.27;;
10588;SDS011;5342;55.676;13.346;2022-12-07T15:36:51;3.30;;;2.97;;
10588;SDS011;5342;55.676;13.346;2022-12-07T15:39:17;4.50;;;3.00;;
10588;SDS011;5342;55.676;13.346;2022-12-07T15:41:44;3.07;;;2.53;;
10588;SDS011;5342;55.676;13.346;2022-12-07T15:44:13;3.57;;;2.37;;
10588;SDS011;5342;55.676;13.346;2022-12-07T15:46:59;5.27;;;2.73;;
10588;SDS011;5342;55.676;13.346;2022-12-07T15:49:26;3.90;;;2.27;;
10588;SDS011;5342;55.676;13.346;2022-12-07T15:51:53;3.20;;;2.27;;
10588;SDS011;5342;55.676;13.346;2022-12-07T15:54:21;3.43;;;2.83;;
10588;SDS011;5342;55.676;13.346;2022-12-07T15:56:48;15.20;;;8.90;;
10588;SDS011;5342;55.676;13.346;2022-12-07T15:59:15;20.03;;;13.93;;
10588;SDS011;5342;55.676;13.346;2022-12-07T16:01:41;10.97;;;6.77;;
10588;SDS011;5342;55.676;13.346;2022-12-07T16:04:08;5.47;;;3.57;;
10588;SDS011;5342;55.676;13.346;2022-12-07T16:06:35;3.50;;;2.80;;
10588;SDS011;5342;55.676;13.346;2022-12-07T16:09:02;8.07;;;4.30;;
10588;SDS011;5342;55.676;13.346;2022-12-07T16:11:28;4.27;;;2.87;;
10588;SDS011;5342;55.676;13.346;2022-12-07T16:13:55;5.30;;;3.80;;
10588;SDS011;5342;55.676;13.346;2022-12-07T16:16:21;3.07;;;2.77;;
10588;SDS011;5342;55.676;13.346;2022-12-07T16:18:48;4.40;;;3.13;;
10588;SDS011;5342;55.676;13.346;2022-12-07T16:21:16;4.47;;;3.13;;
10588;SDS011;5342;55.676;13.346;2022-12-07T16:23:43;4.07;;;3.10;;
10588;SDS011;5342;55.676;13.346;2022-12-07T16:26:20;4.60;;;3.30;;
10588;SDS011;5342;55.676;13.346;2022-12-07T16:28:50;2.90;;;2.40;;
10588;SDS011;5342;55.676;13.346;2022-12-07T16:31:19;3.57;;;3.07;;
10588;SDS011;5342;55.676;13.346;2022-12-07T16:33:46;3.40;;;3.10;;
10588;SDS011;5342;55.676;13.346;2022-12-07T16:36:13;5.80;;;3.17;;
10588;SDS011;5342;55.676;13.346;2022-12-07T16:38:41;4.70;;;3.50;;
10588;SDS011;5342;55.676;13.346;2022-12-07T16:41:08;3.47;;;2.60;;
10588;SDS011;5342;55.676;13.346;2022-12-07T16:43:35;3.90;;;3.03;;
10588;SDS011;5342;55.676;13.346;2022-12-07T16:46:02;2.93;;;2.60;;
10588;SDS011;5342;55.676;13.346;2022-12-07T16:48:29;3.73;;;3.00;;